createdAt,value
2022-08-09T00:00:04.637Z,6.6
2022-08-09T00:05:00.996Z,4.5
2022-08-09T00:10:00.155Z,4.5
2022-08-09T00:15:00.496Z,5.6
2022-08-09T00:20:00.140Z,5.6
2022-08-09T00:25:00.136Z,4.9
2022-08-09T00:30:16.644Z,4.9
2022-08-09T00:35:00.136Z,5.1
2022-08-09T00:40:01.882Z,5.1
2022-08-09T00:45:00.112Z,3.5
2022-08-09T00:50:00.139Z,3.5
2022-08-09T00:55:00.900Z,5.5
2022-08-09T01:00:00.821Z,5.5
2022-08-09T01:05:00.112Z,4.3
2022-08-09T01:10:00.133Z,4.3
2022-08-09T01:15:00.975Z,5.7
2022-08-09T01:20:02.076Z,5.7
2022-08-09T01:25:00.763Z,6.2
2022-08-09T01:30:00.593Z,6.2
2022-08-09T01:35:00.113Z,5.1
2022-08-09T01:40:00.132Z,5.1
2022-08-09T01:45:00.108Z,5.4
2022-08-09T01:50:00.135Z,5.4
2022-08-09T01:55:00.123Z,5.3
2022-08-09T02:00:08.889Z,5.3
2022-08-09T02:05:04.139Z,5.4
2022-08-09T02:10:01.506Z,5.4
2022-08-09T02:15:00.116Z,9.4
2022-08-09T02:20:01.295Z,9.4
2022-08-09T02:25:00.133Z,6.9
2022-08-09T02:30:01.650Z,6.9
2022-08-09T02:35:00.131Z,8.2
2022-08-09T02:40:01.439Z,8.2
2022-08-09T02:45:00.127Z,8.8
2022-08-09T02:50:01.401Z,8.8
2022-08-09T02:55:00.116Z,7
2022-08-09T03:00:11.267Z,7
2022-08-09T03:05:00.142Z,6.9
2022-08-09T03:10:00.575Z,6.9
2022-08-09T03:15:00.114Z,8.5
2022-08-09T03:20:03.073Z,8.5
2022-08-09T03:25:05.628Z,7
2022-08-09T03:30:01.168Z,7
2022-08-09T03:35:00.117Z,7.8
2022-08-09T03:40:00.238Z,7.8
2022-08-09T03:45:00.139Z,8.2
2022-08-09T03:50:00.119Z,8.2
2022-08-09T03:55:00.135Z,6.5
2022-08-09T04:00:00.685Z,6.5
2022-08-09T04:05:00.470Z,8.2
2022-08-09T04:10:00.179Z,8.2
2022-08-09T04:15:01.273Z,12.5
2022-08-09T04:20:02.496Z,12.5
2022-08-09T04:25:00.144Z,12.8
2022-08-09T04:30:00.125Z,12.8
2022-08-09T04:35:01.183Z,17.3
2022-08-09T04:40:00.150Z,17.3
2022-08-09T04:45:00.126Z,18.8
2022-08-09T04:50:00.158Z,18.8
2022-08-09T04:55:00.128Z,13
2022-08-09T05:00:00.156Z,13
2022-08-09T05:05:04.248Z,19.4
2022-08-09T05:10:01.675Z,19.4
2022-08-09T05:15:00.126Z,23.3
2022-08-09T05:20:00.169Z,23.3
2022-08-09T05:25:00.893Z,12.6
2022-08-09T05:30:00.133Z,12.6
2022-08-09T05:35:00.116Z,17.9
2022-08-09T05:40:00.235Z,17.9
2022-08-09T05:45:00.125Z,7.7
2022-08-09T05:50:19.619Z,7.7
2022-08-09T05:55:02.873Z,5
2022-08-09T06:00:00.167Z,5
2022-08-09T06:05:00.148Z,6.1
2022-08-09T06:10:01.883Z,6.1
2022-08-09T06:15:01.788Z,6.7
2022-08-09T06:20:00.119Z,6.7
2022-08-09T06:25:00.144Z,4.2
2022-08-09T06:30:04.728Z,4.2
2022-08-09T06:35:00.131Z,6.8
2022-08-09T06:40:01.900Z,6.8
2022-08-09T06:45:04.715Z,5.6
2022-08-09T06:50:12.471Z,5.6
2022-08-09T06:55:00.129Z,5.6
2022-08-09T07:00:48.383Z,5.6
2022-08-09T07:05:00.195Z,5.6
2022-08-09T07:10:12.720Z,5.6
2022-08-09T07:15:00.107Z,6
2022-08-09T07:20:00.118Z,6
2022-08-09T07:25:00.126Z,5.7
2022-08-09T07:30:00.221Z,5.7
2022-08-09T07:35:00.114Z,6.8
2022-08-09T07:40:00.185Z,6.8
2022-08-09T07:45:02.675Z,6.7
2022-08-09T07:50:05.620Z,6.7
2022-08-09T07:55:00.138Z,6.5
2022-08-09T08:00:02.819Z,6.5
2022-08-09T08:05:00.113Z,5.8
2022-08-09T08:10:05.676Z,5.8
2022-08-09T08:15:00.147Z,5.6
2022-08-09T08:20:00.136Z,5.6
2022-08-09T08:25:00.123Z,3.2
2022-08-09T08:30:00.136Z,3.2
2022-08-09T08:35:00.134Z,5.4
2022-08-09T08:40:00.290Z,5.4
2022-08-09T08:45:00.118Z,5.9
2022-08-09T08:50:02.558Z,5.9
2022-08-09T08:55:01.203Z,3.6
2022-08-09T09:00:00.185Z,3.6
2022-08-09T09:05:03.175Z,6.8
2022-08-09T09:10:02.592Z,6.8
2022-08-09T09:15:00.134Z,7.1
2022-08-09T09:20:00.157Z,7.1
2022-08-09T09:26:02.815Z,4.5
2022-08-09T09:30:08.676Z,4.5
2022-08-09T09:35:00.112Z,5
2022-08-09T09:40:00.814Z,5
2022-08-09T09:45:00.113Z,3.5
2022-08-09T09:50:07.612Z,3.5
2022-08-09T09:55:00.141Z,7.1
2022-08-09T10:00:00.154Z,7.1
2022-08-09T10:05:00.106Z,5.6
2022-08-09T10:10:00.129Z,5.6
2022-08-09T10:15:00.111Z,3.6
2022-08-09T10:20:00.372Z,3.6
2022-08-09T10:25:00.128Z,4.5
2022-08-09T10:30:29.840Z,4.5
2022-08-09T10:35:00.116Z,4.5
2022-08-09T10:40:00.214Z,4.6
2022-08-09T10:45:00.112Z,4.6
2022-08-09T10:50:00.137Z,4.7
2022-08-09T10:55:00.130Z,4.7
2022-08-09T11:00:01.768Z,4.4
2022-08-09T11:05:00.188Z,4.4
2022-08-09T11:10:00.155Z,3.9
2022-08-09T11:15:00.123Z,3.9
2022-08-09T11:20:09.983Z,6.9
2022-08-09T11:25:00.117Z,6.9
2022-08-09T11:30:05.419Z,4.4
2022-08-09T11:35:00.126Z,4.4
2022-08-09T11:40:00.342Z,5.6
2022-08-09T11:45:00.127Z,5.6
2022-08-09T11:50:54.686Z,4.1
2022-08-09T11:55:00.123Z,4.1
2022-08-09T12:00:00.154Z,6.8
2022-08-09T12:05:00.267Z,6.8
2022-08-09T12:10:00.149Z,4.4
2022-08-09T12:15:04.472Z,4.4
2022-08-09T12:20:00.137Z,5.2
2022-08-09T12:25:00.135Z,5.2
2022-08-09T12:30:04.494Z,5.3
2022-08-09T12:35:00.110Z,5.3
2022-08-09T12:40:00.153Z,4.6
2022-08-09T12:45:00.357Z,4.6
2022-08-09T12:50:00.227Z,3.9
2022-08-09T12:55:03.376Z,3.9
2022-08-09T13:00:03.598Z,5.9
2022-08-09T13:05:00.117Z,5.9
2022-08-09T13:10:00.983Z,4.6
2022-08-09T13:15:00.124Z,4.6
2022-08-09T13:20:07.910Z,5.9
2022-08-09T13:25:03.504Z,5.9
2022-08-09T13:30:03.477Z,5.2
2022-08-09T13:35:00.098Z,5.2
2022-08-09T13:41:21.360Z,6
2022-08-09T13:45:00.132Z,6
2022-08-09T13:50:00.854Z,3.8
2022-08-09T13:55:02.167Z,3.8
2022-08-09T14:00:00.142Z,6.1
2022-08-09T14:05:00.615Z,6.1
2022-08-09T14:10:00.134Z,25.5
2022-08-09T14:15:00.112Z,25.5
2022-08-09T14:20:00.152Z,5.1
2022-08-09T14:25:00.137Z,5.1
2022-08-09T14:30:15.365Z,2.9
2022-08-09T14:35:00.145Z,2.9
2022-08-09T14:40:00.294Z,3.4
2022-08-09T14:45:00.928Z,3.4
2022-08-09T14:50:01.701Z,4
2022-08-09T14:55:00.137Z,4
2022-08-09T15:00:00.116Z,5.8
2022-08-09T15:05:00.105Z,5.8
2022-08-09T15:10:04.325Z,5.9
2022-08-09T15:15:00.102Z,5.9
2022-08-09T15:20:02.541Z,5.6
2022-08-09T15:25:00.126Z,5.6
2022-08-09T15:30:47.731Z,5.3
2022-08-09T15:35:00.416Z,5.3
2022-08-09T15:40:00.178Z,7.1
2022-08-09T15:45:00.106Z,7.1
2022-08-09T15:50:00.831Z,4.7
2022-08-09T15:55:00.119Z,4.7
2022-08-09T16:00:00.204Z,4.5
2022-08-09T16:05:02.350Z,4.5
2022-08-09T16:10:02.635Z,4.2
2022-08-09T16:15:00.127Z,4.2
2022-08-09T16:20:04.316Z,4.1
2022-08-09T16:25:00.125Z,4.1
2022-08-09T16:30:01.211Z,4.4
2022-08-09T16:35:00.112Z,4.4
2022-08-09T16:40:04.551Z,7.4
2022-08-09T16:45:00.119Z,7.4
2022-08-09T16:50:28.493Z,3.7
2022-08-09T16:55:00.137Z,3.7
2022-08-09T17:00:00.162Z,5.4
2022-08-09T17:05:00.141Z,5.4
2022-08-09T17:10:02.066Z,9.6
2022-08-09T17:15:00.112Z,9.6
2022-08-09T17:20:29.420Z,4.6
2022-08-09T17:25:02.539Z,4.6
2022-08-09T17:30:00.135Z,4.8
2022-08-09T17:35:01.737Z,4.8
2022-08-09T17:40:00.220Z,8.3
2022-08-09T17:45:00.117Z,8.3
2022-08-09T17:50:07.577Z,5.6
2022-08-09T17:55:00.113Z,5.6
2022-08-09T18:00:05.243Z,9
2022-08-09T18:05:00.113Z,9
2022-08-09T18:10:04.060Z,7.2
2022-08-09T18:15:00.124Z,7.2
2022-08-09T18:20:52.993Z,5.2
2022-08-09T18:25:00.126Z,5.2
2022-08-09T18:30:36.989Z,5.1
2022-08-09T18:35:00.119Z,5.1
2022-08-09T18:40:00.236Z,5.6
2022-08-09T18:45:00.674Z,5.6
2022-08-09T18:50:03.117Z,3.9
2022-08-09T18:55:00.106Z,3.9
2022-08-09T19:00:03.843Z,5.8
2022-08-09T19:05:04.696Z,5.8
2022-08-09T19:10:13.437Z,6.4
2022-08-09T19:15:00.129Z,6.4
2022-08-09T19:20:00.969Z,7.9
2022-08-09T19:25:09.421Z,7.9
2022-08-09T19:30:21.793Z,6.4
2022-08-09T19:35:00.114Z,6.4
2022-08-09T19:40:03.482Z,11.2
2022-08-09T19:45:00.120Z,11.2
2022-08-09T19:50:05.436Z,6.2
2022-08-09T19:55:00.125Z,6.2
2022-08-09T20:00:05.984Z,7.3
2022-08-09T20:05:00.416Z,7.3
2022-08-09T20:10:00.149Z,5.2
2022-08-09T20:15:00.102Z,5.2
2022-08-09T20:20:00.125Z,6.8
2022-08-09T20:25:00.123Z,6.8
2022-08-09T20:30:00.174Z,7.3
2022-08-09T20:35:01.611Z,7.3
2022-08-09T20:40:14.261Z,6.2
2022-08-09T20:45:28.406Z,6.2
2022-08-09T20:50:00.130Z,6
2022-08-09T20:55:00.186Z,6
2022-08-09T21:00:21.036Z,6.5
2022-08-09T21:05:50.282Z,6.5
2022-08-09T21:10:00.147Z,6.4
2022-08-09T21:15:00.120Z,6.4
2022-08-09T21:20:05.529Z,6.5
2022-08-09T21:25:00.129Z,6.5
2022-08-09T21:30:00.146Z,6.8
2022-08-09T21:35:00.133Z,6.8
2022-08-09T21:40:00.299Z,7.6
2022-08-09T21:45:00.102Z,7.6
2022-08-09T21:50:00.126Z,6.2
2022-08-09T21:55:03.566Z,6.2
2022-08-09T22:00:00.124Z,6.8
2022-08-09T22:05:04.272Z,6.8
2022-08-09T22:10:00.130Z,5.6
2022-08-09T22:15:00.116Z,5.6
2022-08-09T22:20:00.564Z,8.9
2022-08-09T22:26:04.738Z,8.9
2022-08-09T22:30:00.195Z,6.9
2022-08-09T22:35:02.800Z,6.9
2022-08-09T22:40:00.315Z,6.9
2022-08-09T22:48:05.241Z,6.9
2022-08-09T22:50:00.198Z,6
2022-08-09T22:55:00.123Z,6
2022-08-09T23:00:00.125Z,6.4
2022-08-09T23:05:00.134Z,6.4
2022-08-09T23:10:00.157Z,6.4
2022-08-09T23:15:00.120Z,6.4
2022-08-09T23:20:00.477Z,6.9
2022-08-09T23:25:00.111Z,6.9
2022-08-09T23:30:00.158Z,5.5
2022-08-09T23:35:00.121Z,5.5
2022-08-09T23:40:00.114Z,8.3
2022-08-09T23:45:00.111Z,8.3
2022-08-09T23:50:00.162Z,6.4
2022-08-09T23:55:00.124Z,6.4
